Time;durP1;ratioP1;P1;durP2;ratioP2;P2;SDS_P1;SDS_P2;PMS_P1;PMS_P2;Temp;Humidity;BMP_temperature;BMP_pressure;BME280_temperature;BME280_humidity;BME280_pressure;Samples;Min_cycle;Max_cycle;Signal;HPM_P1;HPM_P2
2022/07/20 00:00:11;;;;;;;9.93;4.22;;;;;;;26.37;35.95;101049.00;5134133;27;20458;-63
2022/07/20 00:02:37;;;;;;;10.23;3.80;;;;;;;26.43;35.35;101051.78;5133865;27;20135;-64
2022/07/20 00:05:03;;;;;;;6.18;3.90;;;;;;;26.33;36.71;101054.03;5115097;27;20370;-63
2022/07/20 00:07:31;;;;;;;8.98;3.65;;;;;;;26.21;35.97;101042.78;5115358;27;20031;-63
2022/07/20 00:12:41;;;;;;;6.18;3.70;;;;;;;26.07;36.85;101053.75;5134273;27;20069;-63
2022/07/20 00:15:08;;;;;;;6.85;3.80;;;;;;;26.18;36.73;101056.81;5133069;27;20463;-62
2022/07/20 00:17:33;;;;;;;6.43;3.78;;;;;;;25.98;36.49;101047.59;5114829;27;20059;-63
2022/07/20 00:19:59;;;;;;;10.73;4.28;;;;;;;25.93;36.95;101059.06;5114894;27;20066;-62
2022/07/20 00:22:24;;;;;;;9.30;3.60;;;;;;;25.85;37.33;101044.69;5114930;27;20113;-64
2022/07/20 00:24:52;;;;;;;7.18;4.05;;;;;;;25.77;37.54;101048.38;5133615;27;20065;-63
2022/07/20 00:27:18;;;;;;;7.23;3.80;;;;;;;25.78;37.07;101050.88;5097327;27;20039;-63
2022/07/20 00:29:46;;;;;;;12.65;3.92;;;;;;;25.64;37.74;101049.03;5133382;27;20119;-62
2022/07/20 00:32:12;;;;;;;;;;;;;;;26.01;36.14;101050.75;5115753;27;20027;-63
2022/07/20 00:34:38;;;;;;;9.10;4.38;;;;;;;25.82;37.39;101062.28;5115251;27;19912;-63
2022/07/20 00:37:03;;;;;;;7.47;4.07;;;;;;;25.66;36.48;101109.63;5114308;27;20121;-62
2022/07/20 00:39:29;;;;;;;6.93;4.25;;;;;;;25.75;34.63;101115.81;5114851;27;20023;-63
2022/07/20 00:41:54;;;;;;;9.70;4.35;;;;;;;25.88;34.16;101060.66;5133110;27;20073;-63
2022/07/20 00:44:20;;;;;;;8.88;4.22;;;;;;;25.71;36.26;101058.16;5133283;27;20031;-62
2022/07/20 00:46:46;;;;;;;9.98;4.43;;;;;;;25.68;36.52;101066.69;5114706;27;20122;-62
2022/07/20 00:49:13;;;;;;;9.52;4.07;;;;;;;25.64;36.71;101068.09;5114858;27;20030;-63
2022/07/20 00:51:40;;;;;;;11.32;4.15;;;;;;;25.83;35.04;101115.75;5132180;27;20019;-62
2022/07/20 00:54:07;;;;;;;6.90;3.85;;;;;;;25.86;34.47;101093.56;5114008;27;20096;-64
2022/07/20 00:56:34;;;;;;;9.27;4.30;;;;;;;25.94;34.24;101090.75;5133174;27;20027;-62
2022/07/20 00:59:02;;;;;;;7.32;4.38;;;;;;;25.82;35.98;101092.25;5132543;27;20423;-63
2022/07/20 01:01:27;;;;;;;10.38;4.40;;;;;;;25.85;34.64;101110.94;5114178;27;20050;-63
2022/07/20 01:03:55;;;;;;;9.80;4.03;;;;;;;25.83;33.89;101080.34;5132212;27;20111;-63
2022/07/20 01:06:21;;;;;;;10.70;4.10;;;;;;;25.90;35.48;101081.25;5132585;27;20555;-63
2022/07/20 01:08:49;;;;;;;5.65;3.85;;;;;;;25.93;34.21;101085.47;5132446;27;20117;-62
2022/07/20 01:11:14;;;;;;;9.40;4.30;;;;;;;25.85;35.48;101083.69;5132688;27;20466;-62
2022/07/20 01:13:40;;;;;;;12.77;4.20;;;;;;;25.69;36.27;101079.28;5096992;27;20053;-62
2022/07/20 01:16:05;;;;;;;5.05;4.05;;;;;;;25.64;37.29;101072.72;5132578;27;20019;-62
2022/07/20 01:18:30;;;;;;;8.15;4.70;;;;;;;25.54;36.40;101082.03;5114272;27;20031;-62
2022/07/20 01:21:04;;;;;;;13.85;4.68;;;;;;;25.64;34.84;101081.72;5132682;27;20020;-63
2022/07/20 01:23:31;;;;;;;10.10;4.10;;;;;;;25.40;36.56;101082.03;5130586;27;20026;-63
2022/07/20 01:25:57;;;;;;;9.30;4.70;;;;;;;25.43;36.64;101087.09;5132415;27;20023;-62
2022/07/20 01:28:26;;;;;;;13.23;4.38;;;;;;;25.31;36.65;101070.41;5097746;27;20031;-63
2022/07/20 01:30:52;;;;;;;11.05;4.75;;;;;;;25.29;36.81;101067.84;5132482;27;20019;-63
2022/07/20 01:33:18;;;;;;;9.32;4.55;;;;;;;25.06;38.28;101058.88;5113334;27;20038;-63
2022/07/20 01:35:43;;;;;;;7.47;4.78;;;;;;;25.02;38.48;101069.31;5113943;27;20023;-63
2022/07/20 01:38:09;;;;;;;11.90;4.30;;;;;;;24.98;38.22;101067.16;5131422;27;20185;-63
2022/07/20 01:40:37;;;;;;;12.27;4.78;;;;;;;25.00;37.39;101065.06;5132036;27;20043;-63
2022/07/20 01:43:03;;;;;;;6.32;4.10;;;;;;;25.08;37.71;101076.72;5131860;27;20397;-62
2022/07/20 01:45:29;;;;;;;10.50;4.35;;;;;;;24.84;38.24;101056.06;5131847;27;20050;-64
2022/07/20 01:47:55;;;;;;;9.60;4.30;;;;;;;24.95;38.26;101071.09;5113474;27;20493;-63
2022/07/20 01:50:21;;;;;;;10.80;3.90;;;;;;;24.89;37.85;101067.25;5113728;27;20011;-62
2022/07/20 01:52:46;;;;;;;5.82;4.13;;;;;;;24.88;38.31;101078.28;5113368;27;20031;-62
2022/07/20 01:55:12;;;;;;;14.65;4.55;;;;;;;24.86;38.80;101080.38;5131660;27;20039;-63
2022/07/20 01:57:40;;;;;;;7.43;4.30;;;;;;;24.92;38.50;101072.31;5131257;27;20027;-63
2022/07/20 02:00:08;;;;;;;9.48;4.55;;;;;;;24.81;38.98;101094.53;5113583;27;20027;-63
2022/07/20 02:02:33;;;;;;;9.63;4.70;;;;;;;24.79;38.27;101101.16;5112879;27;20379;-63
2022/07/20 02:05:01;;;;;;;9.75;4.45;;;;;;;24.72;38.30;101113.84;5131809;27;20068;-63
2022/07/20 02:07:27;;;;;;;13.00;4.72;;;;;;;24.80;36.93;101132.81;5112993;27;20031;-63
2022/07/20 02:09:52;;;;;;;8.38;4.60;;;;;;;24.76;36.90;101140.47;5113601;28;20031;-63
2022/07/20 02:12:19;;;;;;;11.32;4.60;;;;;;;24.82;36.20;101134.28;5112175;28;20458;-63
2022/07/20 02:14:45;;;;;;;10.85;4.95;;;;;;;24.73;36.88;101134.56;5096601;27;20031;-63
2022/07/20 02:17:10;;;;;;;12.77;5.22;;;;;;;24.73;37.25;101129.94;5131741;27;20072;-62
2022/07/20 02:19:35;;;;;;;10.10;5.63;;;;;;;24.72;37.69;101127.44;5088176;28;20039;-63
2022/07/20 02:22:02;;;;;;;13.57;5.80;;;;;;;24.65;38.62;101124.59;5131018;28;20054;-63
2022/07/20 02:24:27;;;;;;;18.38;6.60;;;;;;;24.76;39.39;101126.88;5131957;28;20098;-62
2022/07/20 02:26:52;;;;;;;11.45;6.93;;;;;;;24.64;40.09;101139.22;5113204;28;20553;-63
2022/07/20 02:29:18;;;;;;;17.85;8.80;;;;;;;24.67;40.34;101133.41;5131446;28;20062;-62
2022/07/20 02:31:44;;;;;;;16.70;10.10;;;;;;;24.62;41.58;101133.97;5112796;28;20031;-63
2022/07/20 02:34:13;;;;;;;19.90;9.25;;;;;;;24.51;42.48;101118.06;5130737;28;20084;-63
2022/07/20 02:36:39;;;;;;;18.88;11.43;;;;;;;24.59;43.23;101112.56;5131087;28;20087;-63
2022/07/20 02:39:07;;;;;;;20.00;11.30;;;;;;;24.47;43.78;101130.31;5131638;28;20365;-63
2022/07/20 02:41:35;;;;;;;19.92;11.55;;;;;;;24.55;44.37;101137.59;5095839;28;20072;-63
2022/07/20 02:44:01;;;;;;;19.63;12.35;;;;;;;24.40;45.19;101146.50;5112628;28;20097;-63
2022/07/20 02:46:27;;;;;;;18.35;13.45;;;;;;;24.48;45.17;101138.31;5131568;28;20409;-63
2022/07/20 02:48:52;;;;;;;20.30;13.88;;;;;;;24.38;45.73;101148.53;5113071;28;20027;-63
2022/07/20 02:51:18;;;;;;;21.00;14.40;;;;;;;24.43;46.04;101135.28;5112554;28;20062;-63
2022/07/20 02:53:46;;;;;;;29.95;14.55;;;;;;;24.33;46.88;101144.69;5108555;28;20071;-62
2022/07/20 02:56:12;;;;;;;23.52;14.75;;;;;;;24.34;46.88;101121.91;5110063;28;20020;-63
2022/07/20 02:58:38;;;;;;;22.40;15.63;;;;;;;24.36;47.53;101131.56;5110952;28;20035;-62
2022/07/20 03:01:03;;;;;;;27.05;15.88;;;;;;;24.28;47.94;101125.34;5110620;28;20050;-63
2022/07/20 03:03:29;;;;;;;29.30;15.27;;;;;;;24.19;48.70;101143.56;5109080;28;20035;-63
2022/07/20 03:05:55;;;;;;;27.00;16.92;;;;;;;24.23;49.13;101155.78;5110024;28;20030;-63
2022/07/20 03:08:21;;;;;;;23.92;17.65;;;;;;;24.21;49.67;101144.25;5109989;28;20020;-63
2022/07/20 03:10:46;;;;;;;34.15;19.08;;;;;;;24.21;50.14;101146.97;5109926;28;20103;-62
2022/07/20 03:13:12;;;;;;;24.73;18.58;;;;;;;24.23;50.50;101143.00;5110563;28;20038;-63
2022/07/20 03:15:37;;;;;;;28.23;19.45;;;;;;;24.13;51.08;101130.69;5110783;28;20390;-63
2022/07/20 03:18:03;;;;;;;36.40;19.73;;;;;;;24.19;51.20;101136.25;5110243;28;20027;-63
2022/07/20 03:20:34;;;;;;;33.40;21.00;;;;;;;24.09;51.76;101138.38;5109962;28;20027;-62
2022/07/20 03:23:00;;;;;;;28.65;19.52;;;;;;;24.12;51.85;101137.13;5110214;28;20038;-63
2022/07/20 03:25:26;;;;;;;33.72;22.02;;;;;;;24.05;52.63;101153.31;5113454;28;20460;-63
2022/07/20 03:27:53;;;;;;;37.28;23.75;;;;;;;23.86;53.63;101160.03;5113490;28;20028;-63
2022/07/20 03:30:19;;;;;;;31.63;22.65;;;;;;;23.82;54.03;101168.72;5112560;28;20024;-63
2022/07/20 03:32:45;;;;;;;35.35;22.77;;;;;;;23.89;53.91;101172.44;5113975;28;20480;-63
2022/07/20 03:35:11;;;;;;;34.70;22.40;;;;;;;23.80;54.58;101186.03;5094331;28;20055;-63
2022/07/20 03:37:36;;;;;;;35.53;22.50;;;;;;;23.72;54.79;101177.91;5112008;28;20027;-63
2022/07/20 03:40:03;;;;;;;33.95;23.30;;;;;;;23.64;55.06;101179.78;5111175;28;20375;-63
2022/07/20 03:42:29;;;;;;;31.48;23.27;;;;;;;23.69;55.44;101197.25;5111717;28;20518;-63
2022/07/20 03:44:57;;;;;;;43.75;24.83;;;;;;;23.57;55.86;101195.91;5112628;28;20169;-63
2022/07/20 03:47:23;;;;;;;40.05;26.67;;;;;;;23.61;56.21;101196.41;5112928;28;20035;-62
2022/07/20 03:49:50;;;;;;;35.30;25.35;;;;;;;23.50;56.67;101195.78;5113769;28;20539;-63
2022/07/20 03:52:16;;;;;;;38.72;26.17;;;;;;;23.53;56.82;101202.69;5111981;28;20108;-63
2022/07/20 03:54:41;;;;;;;34.65;25.00;;;;;;;23.60;56.26;101211.88;5112182;28;20035;-63
2022/07/20 03:57:07;;;;;;;40.47;26.98;;;;;;;23.48;56.84;101224.13;5112170;28;20579;-63
2022/07/20 03:59:36;;;;;;;36.92;25.65;;;;;;;23.53;56.58;101228.00;5113310;28;20023;-63
2022/07/20 04:02:03;;;;;;;45.22;27.10;;;;;;;23.52;56.60;101229.00;5112117;28;20028;-63
2022/07/20 04:04:28;;;;;;;34.95;25.50;;;;;;;23.51;56.77;101230.03;5111865;28;20367;-63
2022/07/20 04:06:57;;;;;;;39.50;25.83;;;;;;;23.46;57.07;101239.72;5113128;28;20038;-63
2022/07/20 04:12:09;;;;;;;33.67;25.48;;;;;;;23.37;57.32;101241.59;5111926;28;20034;-63
2022/07/20 04:14:35;;;;;;;35.60;25.65;;;;;;;23.43;56.85;101231.91;5111826;28;20118;-63
2022/07/20 04:17:02;;;;;;;34.28;25.88;;;;;;;23.37;57.03;101244.31;5113120;28;20475;-63
2022/07/20 04:19:28;;;;;;;34.58;25.52;;;;;;;23.43;56.60;101243.63;5113211;28;20023;-63
2022/07/20 04:21:55;;;;;;;37.55;25.05;;;;;;;23.29;56.82;101249.72;5112674;28;20036;-63
2022/07/20 04:24:20;;;;;;;33.65;24.65;;;;;;;23.33;56.71;101249.25;5112387;28;20019;-62
2022/07/20 04:26:49;;;;;;;33.35;24.40;;;;;;;23.34;57.27;101252.78;5111489;28;20030;-63
2022/07/20 04:29:15;;;;;;;31.02;24.17;;;;;;;23.40;56.61;101253.97;5113107;28;20020;-63
2022/07/20 04:31:40;;;;;;;33.03;23.92;;;;;;;23.43;56.24;101257.19;5110576;28;20025;-63
2022/07/20 04:34:06;;;;;;;33.65;23.80;;;;;;;23.30;56.72;101257.72;5109739;28;20055;-63
2022/07/20 04:36:31;;;;;;;36.03;23.73;;;;;;;23.42;56.03;101273.69;5108999;28;20031;-64
2022/07/20 04:38:56;;;;;;;29.80;22.88;;;;;;;23.50;55.76;101260.06;5093423;28;20049;-63
2022/07/20 04:41:23;;;;;;;33.95;21.35;;;;;;;23.56;55.78;101267.56;5110238;28;20084;-62
2022/07/20 04:43:48;;;;;;;30.23;22.23;;;;;;;23.62;55.60;101266.00;5110395;28;20303;-63
2022/07/20 04:46:16;;;;;;;34.15;22.20;;;;;;;23.63;55.28;101281.28;5087563;28;20044;-63
2022/07/20 04:48:41;;;;;;;33.13;22.23;;;;;;;23.57;55.73;101282.81;5110747;28;20028;-62
2022/07/20 04:51:08;;;;;;;55.67;22.27;;;;;;;23.58;55.11;101284.50;5110959;28;20034;-63
2022/07/20 04:53:33;;;;;;;32.33;21.45;;;;;;;23.52;55.49;101291.47;5118653;27;20066;-63
2022/07/20 04:55:59;;;;;;;32.63;22.20;;;;;;;23.53;55.66;101290.47;5113995;27;20063;-63
2022/07/20 04:58:24;;;;;;;27.00;20.08;;;;;;;23.44;55.89;101286.06;5097947;27;20041;-63
2022/07/20 05:00:52;;;;;;;26.42;20.15;;;;;;;23.45;55.61;101284.19;5114979;27;20096;-63
2022/07/20 05:03:20;;;;;;;27.00;21.25;;;;;;;23.51;55.53;101287.06;5112522;27;20033;-63
2022/07/20 05:05:45;;;;;;;28.33;20.88;;;;;;;23.49;55.55;101286.38;5132532;27;20581;-63
2022/07/20 05:08:10;;;;;;;27.33;19.75;;;;;;;23.52;55.43;101279.75;5114083;27;20113;-63
2022/07/20 05:10:37;;;;;;;28.95;20.05;;;;;;;23.47;55.68;101283.00;5114562;27;20031;-63
2022/07/20 05:13:02;;;;;;;28.50;20.17;;;;;;;23.60;55.31;101282.47;5114593;27;20054;-63
2022/07/20 05:15:27;;;;;;;26.35;19.50;;;;;;;23.58;56.15;101284.50;5114012;27;20035;-63
2022/07/20 05:17:53;;;;;;;33.03;20.40;;;;;;;23.57;55.35;101282.81;5114113;27;20031;-63
2022/07/20 05:20:21;;;;;;;28.88;20.23;;;;;;;23.58;55.76;101289.94;5128628;27;20050;-63
2022/07/20 05:22:46;;;;;;;30.42;20.77;;;;;;;23.61;55.15;101292.31;5112719;27;20058;-62
2022/07/20 05:25:14;;;;;;;28.45;20.23;;;;;;;23.61;55.67;101296.91;5096086;27;20050;-62
2022/07/20 05:27:40;;;;;;;25.15;19.30;;;;;;;23.67;54.98;101313.34;5129440;27;20466;-63
2022/07/20 05:30:06;;;;;;;29.00;20.08;;;;;;;23.66;55.28;101324.41;5096066;27;20027;-63
2022/07/20 05:32:31;;;;;;;28.25;19.13;;;;;;;23.70;54.85;101325.78;5096698;27;20047;-63
2022/07/20 05:34:58;;;;;;;25.15;18.80;;;;;;;23.68;54.81;101325.94;5113112;27;20041;-63
2022/07/20 05:37:24;;;;;;;24.50;18.35;;;;;;;23.73;55.05;101325.44;5131481;27;20031;-63
2022/07/20 05:39:52;;;;;;;32.35;19.02;;;;;;;23.78;54.70;101329.34;5112350;27;20110;-63
2022/07/20 05:42:17;;;;;;;28.92;19.70;;;;;;;23.80;55.30;101348.19;5096384;27;20308;-63
2022/07/20 05:44:45;;;;;;;29.20;19.23;;;;;;;23.78;54.58;101355.66;5113206;27;20045;-63
2022/07/20 05:47:11;;;;;;;28.70;18.15;;;;;;;23.85;54.14;101359.38;5111943;27;20107;-63
2022/07/20 05:49:36;;;;;;;29.00;17.85;;;;;;;23.93;55.00;101358.53;5112746;27;20046;-62
2022/07/20 05:52:03;;;;;;;22.05;16.50;;;;;;;24.00;53.66;101360.41;5112264;27;20061;-63
2022/07/20 05:54:31;;;;;;;27.05;17.40;;;;;;;24.02;53.74;101365.66;5112761;27;20382;-62
2022/07/20 05:56:57;;;;;;;21.30;17.00;;;;;;;24.14;53.31;101368.84;5130380;27;20470;-62
2022/07/20 05:59:25;;;;;;;28.00;17.33;;;;;;;24.12;53.52;101382.63;5132241;27;20550;-63
2022/07/20 06:01:51;;;;;;;21.98;16.48;;;;;;;24.15;52.85;101387.72;5113271;27;20042;-63
2022/07/20 06:04:17;;;;;;;26.10;15.52;;;;;;;24.10;52.74;101391.97;5131231;27;20047;-63
2022/07/20 06:06:43;;;;;;;26.40;15.63;;;;;;;24.08;52.82;101404.88;5095346;27;20043;-63
2022/07/20 06:09:09;;;;;;;20.35;14.95;;;;;;;24.07;52.98;101400.47;5131363;27;20528;-63
2022/07/20 06:11:37;;;;;;;25.27;14.80;;;;;;;24.01;52.90;101404.72;5129900;27;20016;-63
2022/07/20 06:14:02;;;;;;;26.23;14.68;;;;;;;23.97;53.17;101401.50;5131122;27;20466;-63
2022/07/20 06:16:28;;;;;;;18.92;13.82;;;;;;;23.94;53.01;101423.59;5131559;27;20068;-63
2022/07/20 06:18:53;;;;;;;23.48;14.85;;;;;;;23.92;52.99;101420.19;5113077;27;20031;-63
2022/07/20 06:21:19;;;;;;;21.02;14.07;;;;;;;23.85;53.63;101421.88;5111258;28;20023;-63
2022/07/20 06:23:44;;;;;;;23.20;14.00;;;;;;;23.86;53.86;101423.59;5129870;28;20033;-63
2022/07/20 06:26:10;;;;;;;21.27;15.00;;;;;;;23.95;53.44;101441.59;5113089;28;20083;-63
2022/07/20 06:28:36;;;;;;;20.20;13.80;;;;;;;24.07;53.35;101443.97;5130545;28;20027;-63
2022/07/20 06:31:03;;;;;;;20.35;13.35;;;;;;;24.14;53.34;101448.53;5129497;28;20026;-62
2022/07/20 06:33:28;;;;;;;33.05;14.57;;;;;;;24.12;54.19;101461.47;5131468;28;20477;-64
2022/07/20 06:35:54;;;;;;;27.30;14.10;;;;;;;24.18;53.14;101470.81;5113064;28;20091;-60
2022/07/20 06:38:20;;;;;;;25.63;14.43;;;;;;;24.12;53.37;101479.59;5110066;28;20126;-65
2022/07/20 06:40:45;;;;;;;22.73;13.88;;;;;;;24.15;53.34;101480.16;5112828;28;20035;-60
2022/07/20 06:43:11;;;;;;;25.55;14.05;;;;;;;24.22;53.16;101483.03;5110541;28;20027;-60
2022/07/20 06:45:36;;;;;;;23.80;14.02;;;;;;;24.17;52.89;101488.13;5111695;28;20046;-60
2022/07/20 06:48:02;;;;;;;34.20;14.27;;;;;;;24.16;53.08;101494.59;5109968;28;20047;-61
2022/07/20 06:50:28;;;;;;;26.33;14.38;;;;;;;24.14;53.28;101497.44;5111933;28;20027;-60
2022/07/20 06:52:53;;;;;;;26.58;14.25;;;;;;;24.07;53.41;101504.59;5129740;28;20022;-59
2022/07/20 06:55:19;;;;;;;22.92;13.73;;;;;;;24.08;53.39;101509.00;5131083;28;20462;-60
2022/07/20 06:57:46;;;;;;;24.70;13.52;;;;;;;24.12;53.17;101512.22;5112908;28;20031;-60
2022/07/20 07:00:13;;;;;;;22.02;13.32;;;;;;;24.18;53.37;101515.13;5115264;27;20035;-60
2022/07/20 07:02:38;;;;;;;25.10;13.65;;;;;;;24.10;52.75;101504.25;5134959;27;20072;-60
2022/07/20 07:05:07;;;;;;;24.98;13.40;;;;;;;24.19;52.88;101514.13;5134547;27;20015;-61
2022/07/20 07:07:34;;;;;;;19.90;12.82;;;;;;;24.18;53.58;101520.56;5133603;27;20092;-62
2022/07/20 07:09:59;;;;;;;22.05;14.35;;;;;;;24.34;53.22;101513.44;5115302;27;20019;-61
2022/07/20 07:12:25;;;;;;;22.77;13.52;;;;;;;24.38;52.83;101507.47;5116046;27;20117;-58
2022/07/20 07:14:50;;;;;;;26.98;14.52;;;;;;;24.42;52.70;101488.97;5116340;27;20031;-57
2022/07/20 07:17:16;;;;;;;25.70;14.40;;;;;;;24.43;53.37;101501.56;5098737;27;20038;-58
2022/07/20 07:19:41;;;;;;;22.83;14.23;;;;;;;24.37;53.69;101494.91;5113754;27;20023;-57
2022/07/20 07:22:08;;;;;;;22.50;14.25;;;;;;;24.56;53.03;101496.44;5112238;27;20023;-64
2022/07/20 07:24:36;;;;;;;19.15;13.00;;;;;;;24.64;52.89;101499.13;5133716;27;20388;-61
2022/07/20 07:27:02;;;;;;;26.80;13.88;;;;;;;24.67;52.40;101519.72;5134805;27;20074;-59
2022/07/20 07:29:28;;;;;;;27.60;13.15;;;;;;;24.75;52.19;101525.13;5134108;27;20048;-65
2022/07/20 07:31:58;;;;;;;23.52;12.60;;;;;;;24.70;52.10;101522.94;5132785;27;20033;-59
2022/07/20 07:34:25;;;;;;;24.83;12.20;;;;;;;24.78;52.10;101541.13;5135050;27;20085;-61
2022/07/20 07:36:50;;;;;;;20.05;12.52;;;;;;;24.82;52.41;101547.91;5134006;27;20072;-62
2022/07/20 07:39:16;;;;;;;19.13;12.65;;;;;;;24.90;53.08;101550.59;5134243;27;20453;-61
2022/07/20 07:41:41;;;;;;;19.70;12.05;;;;;;;24.98;52.41;101544.31;5116289;27;20034;-62
2022/07/20 07:44:07;;;;;;;19.27;11.98;;;;;;;25.07;52.34;101550.59;5134712;27;20366;-65
2022/07/20 07:46:33;;;;;;;20.17;11.90;;;;;;;25.20;51.45;101563.66;5134285;27;20023;-63
2022/07/20 07:48:58;;;;;;;23.85;12.18;;;;;;;25.28;51.45;101567.22;5115839;27;20031;-60
2022/07/20 07:51:23;;;;;;;18.00;11.18;;;;;;;25.40;51.00;101573.13;5133787;27;20023;-64
2022/07/20 07:53:52;;;;;;;15.57;11.25;;;;;;;25.44;51.16;101574.47;5134027;27;20047;-64
2022/07/20 07:56:18;;;;;;;22.20;10.98;;;;;;;25.47;50.92;101571.41;5082439;27;20525;-65
2022/07/20 07:58:43;;;;;;;18.65;10.85;;;;;;;25.63;50.70;101573.19;5134319;27;20134;-64
2022/07/20 08:01:09;;;;;;;16.50;10.73;;;;;;;25.71;50.99;101564.97;5098416;27;20027;-66
2022/07/20 08:03:35;;;;;;;20.77;11.15;;;;;;;25.78;49.76;101559.66;5133922;27;20757;-60
2022/07/20 08:06:01;;;;;;;18.13;9.77;;;;;;;25.88;49.57;101548.53;5115908;27;20042;-65
2022/07/20 08:08:26;;;;;;;17.38;9.82;;;;;;;26.01;48.84;101544.19;5115339;27;20145;-67
2022/07/20 08:10:52;;;;;;;14.20;9.48;;;;;;;26.05;48.57;101539.22;5114613;27;20497;-62
2022/07/20 08:13:17;;;;;;;14.80;9.35;;;;;;;26.12;48.29;101520.25;5134004;27;20420;-63
2022/07/20 08:15:43;;;;;;;19.55;9.85;;;;;;;26.20;47.25;101531.94;5115475;27;20042;-59
2022/07/20 08:18:09;;;;;;;15.95;9.55;;;;;;;26.32;47.61;101526.91;5115364;27;20055;-61
2022/07/20 08:20:35;;;;;;;17.58;10.23;;;;;;;26.24;47.91;101529.72;5133912;27;20059;-59
2022/07/20 08:23:00;;;;;;;15.00;9.40;;;;;;;26.17;46.97;101531.47;5133045;27;20058;-62
2022/07/20 08:25:26;;;;;;;16.92;10.25;;;;;;;26.14;48.56;101529.94;5134163;27;20027;-62
2022/07/20 08:27:52;;;;;;;16.77;9.77;;;;;;;26.05;48.27;101541.97;5133719;27;20042;-62
2022/07/20 08:30:18;;;;;;;14.48;9.93;;;;;;;25.97;47.70;101537.44;5115121;27;20117;-62
2022/07/20 08:32:43;;;;;;;15.52;9.88;;;;;;;26.11;48.36;101556.75;5133124;27;20412;-62
2022/07/20 08:35:10;;;;;;;19.35;10.15;;;;;;;26.14;48.19;101568.13;5098301;27;20031;-62
2022/07/20 08:37:39;;;;;;;20.45;9.88;;;;;;;26.20;48.39;101574.75;5133119;27;20092;-62
2022/07/20 08:40:06;;;;;;;17.05;10.10;;;;;;;26.25;47.57;101572.31;5114896;27;20035;-62
2022/07/20 08:42:32;;;;;;;18.73;10.77;;;;;;;26.29;47.82;101585.41;5132549;27;20080;-62
2022/07/20 08:44:58;;;;;;;15.45;9.90;;;;;;;26.31;48.02;101574.31;5132827;27;20019;-62
2022/07/20 08:47:29;;;;;;;14.38;9.95;;;;;;;26.33;47.48;101569.53;5114596;27;20099;-62
2022/07/20 08:49:54;;;;;;;16.98;10.27;;;;;;;26.34;47.31;101554.00;5115011;27;20023;-62
2022/07/20 08:52:20;;;;;;;16.15;10.00;;;;;;;26.36;48.03;101577.34;5132968;27;20503;-62
2022/07/20 08:54:46;;;;;;;15.48;9.63;;;;;;;26.32;46.89;101566.97;5133202;27;20051;-62
2022/07/20 08:57:15;;;;;;;14.13;9.43;;;;;;;26.27;47.12;101551.19;5132913;27;20549;-62
2022/07/20 08:59:41;;;;;;;13.50;9.80;;;;;;;26.18;47.51;101546.81;5132964;27;20023;-62
2022/07/20 09:02:08;;;;;;;17.92;9.45;;;;;;;26.13;47.95;101520.09;5133264;27;20098;-62
2022/07/20 09:04:58;;;;;;;15.50;10.05;;;;;;;26.09;47.63;101509.72;5114833;27;20386;-62
2022/07/20 09:07:37;;;;;;;15.98;9.68;;;;;;;26.05;47.88;101540.06;5114084;27;20033;-62
2022/07/20 09:10:04;;;;;;;17.85;10.07;;;;;;;25.93;48.35;101565.22;5131093;27;20382;-62
2022/07/20 09:12:30;;;;;;;16.67;10.23;;;;;;;25.87;48.32;101565.94;5133020;27;20019;-62
2022/07/20 09:14:55;;;;;;;16.50;10.20;;;;;;;25.92;48.64;101572.56;5097612;27;20378;-62
2022/07/20 09:17:22;;;;;;;23.05;10.23;;;;;;;26.01;48.76;101604.19;5097435;27;20520;-62
2022/07/20 09:19:55;;;;;;;18.85;11.25;;;;;;;25.94;49.07;101638.66;5132304;27;20485;-62
2022/07/20 09:22:32;;;;;;;16.30;10.43;;;;;;;25.96;48.75;101652.09;5111914;27;20012;-62
2022/07/20 09:25:14;;;;;;;21.73;11.43;;;;;;;25.95;48.32;101656.69;5132864;27;20023;-61
2022/07/20 09:27:41;;;;;;;20.52;11.13;;;;;;;25.87;49.00;101654.00;5132457;27;20053;-62
2022/07/20 09:30:16;;;;;;;20.13;10.30;;;;;;;26.02;48.64;101657.69;5132788;27;20021;-62
2022/07/20 09:32:52;;;;;;;21.48;10.73;;;;;;;26.19;48.44;101646.69;5132192;27;20018;-62
2022/07/20 09:35:20;;;;;;;14.63;10.35;;;;;;;26.33;48.09;101635.00;5132098;27;20046;-62
2022/07/20 09:37:46;;;;;;;18.67;10.45;;;;;;;26.55;48.21;101627.88;5131882;27;20023;-62
2022/07/20 09:40:11;;;;;;;18.70;10.98;;;;;;;26.59;47.86;101639.25;5132304;27;20114;-62
2022/07/20 09:42:42;;;;;;;16.85;10.52;;;;;;;26.62;46.91;101631.56;5131160;27;20501;-62
2022/07/20 09:45:29;;;;;;;15.52;10.23;;;;;;;26.77;46.81;101620.69;5132335;27;20373;-62
2022/07/20 09:48:11;;;;;;;13.60;9.57;;;;;;;26.82;46.44;101622.84;5130472;27;20027;-62
2022/07/20 09:50:40;;;;;;;14.07;9.70;;;;;;;26.90;46.17;101622.78;5113831;27;20019;-62
2022/07/20 09:53:07;;;;;;;15.95;9.38;;;;;;;27.08;45.90;101617.81;5128410;27;20025;-62
2022/07/20 09:55:34;;;;;;;15.65;9.82;;;;;;;27.15;45.55;101607.88;5130398;27;20053;-62
2022/07/20 09:58:00;;;;;;;15.18;9.88;;;;;;;27.30;45.11;101610.63;5102547;27;20120;-61
2022/07/20 10:00:26;;;;;;;18.55;9.15;;;;;;;27.41;44.48;101603.81;5129471;27;20039;-62
2022/07/20 10:02:55;;;;;;;20.35;9.07;;;;;;;27.47;44.39;101600.31;5123710;27;20128;-62
2022/07/20 10:05:21;;;;;;;;;;;;;;;27.53;45.08;101610.53;5114023;27;20079;-61
2022/07/20 10:07:49;;;;;;;13.52;8.30;;;;;;;27.41;44.74;101620.22;5131310;27;19907;-62
2022/07/20 10:10:15;;;;;;;18.75;9.50;;;;;;;27.33;44.65;101634.84;5111922;27;20106;-62
2022/07/20 10:12:41;;;;;;;17.13;9.07;;;;;;;27.39;46.40;101646.91;5106696;28;20393;-62
2022/07/20 10:15:14;;;;;;;14.90;9.70;;;;;;;27.43;45.01;101644.63;5128731;27;20026;-61
2022/07/20 10:17:43;;;;;;;15.73;9.43;;;;;;;27.49;45.63;101631.06;5123804;27;20047;-61
2022/07/20 10:20:35;;;;;;;11.98;8.68;;;;;;;27.52;45.08;101618.91;5129510;27;20023;-62
2022/07/20 10:23:15;;;;;;;21.45;9.32;;;;;;;27.60;44.98;101621.53;5127349;27;20027;-62
2022/07/20 10:25:45;;;;;;;17.80;9.18;;;;;;;27.36;44.96;101600.81;5115853;28;20072;-62
2022/07/20 10:28:25;;;;;;;16.20;9.60;;;;;;;27.46;45.17;101611.47;5112307;28;20027;-62
2022/07/20 10:31:16;;;;;;;12.13;8.63;;;;;;;27.61;45.42;101615.03;5131272;28;20224;-62
2022/07/20 10:33:42;;;;;;;15.65;9.35;;;;;;;27.69;44.99;101603.16;5128332;27;20497;-62
2022/07/20 10:39:38;;;;;;;16.83;7.90;;;;;;;27.83;44.77;101605.88;5130317;27;20100;-61
2022/07/20 10:42:21;;;;;;;12.02;8.35;;;;;;;27.85;44.08;101603.81;5131860;27;20126;-62
2022/07/20 10:44:47;;;;;;;16.17;7.38;;;;;;;27.89;43.10;101606.16;5131888;27;20031;-62
2022/07/20 10:47:50;;;;;;;14.48;7.90;;;;;;;28.01;43.26;101605.44;5097563;27;20031;-62
2022/07/20 10:50:30;;;;;;;11.27;7.97;;;;;;;28.08;44.25;101609.09;5131623;27;20027;-62
2022/07/20 10:53:18;;;;;;;13.15;7.93;;;;;;;28.16;43.19;101601.81;5130089;27;20110;-62
2022/07/20 10:55:52;;;;;;;15.38;7.80;;;;;;;28.35;44.44;101608.53;5134544;27;20394;-62
2022/07/20 10:58:25;;;;;;;16.38;7.97;;;;;;;28.25;43.50;101612.44;5117061;27;20031;-62
2022/07/20 11:00:53;;;;;;;10.93;7.43;;;;;;;28.37;42.52;101620.97;5135516;27;20481;-62
2022/07/20 11:03:25;;;;;;;15.98;8.15;;;;;;;28.35;42.91;101622.22;5133722;27;20044;-62
2022/07/20 11:06:10;;;;;;;17.45;8.73;;;;;;;28.47;43.26;101624.28;5135256;27;20375;-62
2022/07/20 11:08:42;;;;;;;13.57;7.75;;;;;;;28.49;42.77;101627.66;5135168;27;20417;-62
2022/07/20 11:11:17;;;;;;;14.07;8.73;;;;;;;28.55;42.94;101626.03;5134558;27;20019;-62
2022/07/20 11:13:42;;;;;;;15.55;8.05;;;;;;;28.55;42.65;101619.69;5113158;27;20068;-62
2022/07/20 11:16:08;;;;;;;19.05;8.50;;;;;;;28.49;41.68;101615.84;5134900;27;20023;-62
2022/07/20 11:18:34;;;;;;;18.17;7.70;;;;;;;28.50;41.87;101609.31;5114621;27;20059;-61
2022/07/20 11:21:08;;;;;;;18.13;8.13;;;;;;;28.64;42.07;101615.78;5130460;27;20038;-61
2022/07/20 11:23:39;;;;;;;16.48;7.93;;;;;;;28.74;42.29;101610.81;5134004;27;20095;-61